createdAt,value
2023-02-12T00:00:26.076Z,8.47
2023-02-12T00:01:25.839Z,8.47
2023-02-12T00:02:26.187Z,8.47
2023-02-12T00:03:47.390Z,8.47
2023-02-12T00:04:26.135Z,8.47
2023-02-12T00:05:25.908Z,8.47
2023-02-12T00:06:26.176Z,8.45
2023-02-12T00:07:25.919Z,8.44
2023-02-12T00:08:26.199Z,8.44
2023-02-12T00:09:25.950Z,8.44
2023-02-12T00:10:26.233Z,8.44
2023-02-12T00:11:25.953Z,8.43
2023-02-12T00:12:25.718Z,8.41
2023-02-12T00:13:47.451Z,8.43
2023-02-12T00:14:25.759Z,8.43
2023-02-12T00:15:26.075Z,8.43
2023-02-12T00:16:25.776Z,8.43
2023-02-12T00:17:26.026Z,8.43
2023-02-12T00:18:25.823Z,8.41
2023-02-12T00:19:26.062Z,8.41
2023-02-12T00:20:25.813Z,8.40
2023-02-12T00:21:26.083Z,8.43
2023-02-12T00:22:25.825Z,8.41
2023-02-12T00:23:47.577Z,8.43
2023-02-12T00:24:25.862Z,8.43
2023-02-12T00:25:25.615Z,8.41
2023-02-12T00:26:25.873Z,8.41
2023-02-12T00:27:25.625Z,8.40
2023-02-12T00:28:25.969Z,8.40
2023-02-12T00:29:25.633Z,8.40
2023-02-12T00:30:25.943Z,8.40
2023-02-12T00:31:25.955Z,8.40
2023-02-12T00:32:25.913Z,8.40
2023-02-12T00:33:47.164Z,8.41
2023-02-12T00:34:25.663Z,8.40
2023-02-12T00:35:25.685Z,8.40
2023-02-12T00:36:25.457Z,8.38
2023-02-12T00:37:25.700Z,8.38
2023-02-12T00:38:25.455Z,8.38
2023-02-12T00:39:25.721Z,8.37
2023-02-12T00:40:25.488Z,8.38
2023-02-12T00:41:25.735Z,8.36
2023-02-12T00:42:25.491Z,8.36
2023-02-12T00:43:46.378Z,8.37
2023-02-12T00:44:25.564Z,8.36
2023-02-12T00:45:25.915Z,8.36
2023-02-12T00:46:25.699Z,8.36
2023-02-12T00:47:25.368Z,8.34
2023-02-12T00:48:25.618Z,8.34
2023-02-12T00:49:25.392Z,8.33
2023-02-12T00:50:25.657Z,8.34
2023-02-12T00:51:25.393Z,8.34
2023-02-12T00:52:25.657Z,8.33
2023-02-12T00:53:46.900Z,8.30
2023-02-12T00:54:25.711Z,8.30
2023-02-12T00:55:25.445Z,8.29
2023-02-12T00:56:25.701Z,8.28
2023-02-12T00:57:25.450Z,8.28
2023-02-12T00:58:25.225Z,8.26
2023-02-12T00:59:25.466Z,8.25
2023-02-12T01:00:25.230Z,8.25
2023-02-12T01:01:25.477Z,8.23
2023-02-12T01:02:25.246Z,8.25
2023-02-12T01:03:47.010Z,8.25
2023-02-12T01:04:25.292Z,8.25
2023-02-12T01:05:25.631Z,8.23
2023-02-12T01:06:25.300Z,8.23
2023-02-12T01:07:25.540Z,8.22
2023-02-12T01:08:25.319Z,8.20
2023-02-12T01:09:25.558Z,8.20
2023-02-12T01:10:26.759Z,8.20
2023-02-12T01:11:25.070Z,8.19
2023-02-12T01:12:25.341Z,8.18
2023-02-12T01:13:45.903Z,8.18
2023-02-12T01:14:25.408Z,8.16
2023-02-12T01:15:25.198Z,8.16
2023-02-12T01:16:25.520Z,8.18
2023-02-12T01:17:25.201Z,8.18
2023-02-12T01:18:25.454Z,8.18
2023-02-12T01:19:25.197Z,8.16
2023-02-12T01:20:24.978Z,8.18
2023-02-12T01:21:25.233Z,8.16
2023-02-12T01:22:25.015Z,8.16
2023-02-12T01:23:46.736Z,8.15
2023-02-12T01:24:25.027Z,8.16
2023-02-12T01:25:25.278Z,8.12
2023-02-12T01:26:25.045Z,8.12
2023-02-12T01:27:25.299Z,8.12
2023-02-12T01:28:25.106Z,8.16
2023-02-12T01:29:25.314Z,8.15
2023-02-12T01:30:25.069Z,8.12
2023-02-12T01:31:25.529Z,8.15
2023-02-12T01:32:25.052Z,8.12
2023-02-12T01:33:46.800Z,8.11
2023-02-12T01:34:25.129Z,8.10
2023-02-12T01:35:24.884Z,8.10
2023-02-12T01:36:26.570Z,8.10
2023-02-12T01:37:24.892Z,8.08
2023-02-12T01:38:25.141Z,8.08
2023-02-12T01:39:24.902Z,8.08
2023-02-12T01:40:25.153Z,8.08
2023-02-12T01:41:24.904Z,8.05
2023-02-12T01:42:25.223Z,8.07
2023-02-12T01:43:46.429Z,8.07
2023-02-12T01:44:24.710Z,8.07
2023-02-12T01:45:24.971Z,8.07
2023-02-12T01:46:24.753Z,8.07
2023-02-12T01:47:24.986Z,8.07
2023-02-12T01:48:24.759Z,8.08
2023-02-12T01:49:24.998Z,8.08
2023-02-12T01:50:24.760Z,8.08
2023-02-12T01:51:25.004Z,8.08
2023-02-12T01:52:24.759Z,8.10
2023-02-12T01:53:45.430Z,8.10
2023-02-12T01:54:25.880Z,8.10
2023-02-12T01:55:26.103Z,8.10
2023-02-12T01:56:26.487Z,8.11
2023-02-12T01:57:26.228Z,8.11
2023-02-12T01:58:26.588Z,8.11
2023-02-12T01:59:25.415Z,8.10
2023-02-12T02:00:25.698Z,8.11
2023-02-12T02:01:26.502Z,8.10
2023-02-12T02:02:26.280Z,8.10
2023-02-12T02:03:44.598Z,8.11
2023-02-12T02:04:25.416Z,8.10
2023-02-12T02:05:24.756Z,8.08
2023-02-12T02:06:25.978Z,8.08
2023-02-12T02:07:26.342Z,8.07
2023-02-12T02:08:26.126Z,8.07
2023-02-12T02:09:26.416Z,8.05
2023-02-12T02:10:25.424Z,8.05
2023-02-12T02:11:26.002Z,8.07
2023-02-12T02:12:26.300Z,8.05
2023-02-12T02:13:44.631Z,8.08
2023-02-12T02:14:26.339Z,8.05
2023-02-12T02:15:25.427Z,8.07
2023-02-12T02:16:26.007Z,8.05
2023-02-12T02:17:26.214Z,8.05
2023-02-12T02:18:26.016Z,8.04
2023-02-12T02:19:26.318Z,8.04
2023-02-12T02:20:25.667Z,8.02
2023-02-12T02:21:25.968Z,8.01
2023-02-12T02:22:25.431Z,8.01
2023-02-12T02:23:44.591Z,8.00
2023-02-12T02:24:25.820Z,8.00
2023-02-12T02:25:26.099Z,7.98
2023-02-12T02:26:25.917Z,8.00
2023-02-12T02:27:24.928Z,7.98
2023-02-12T02:28:25.533Z,7.98
2023-02-12T02:29:25.084Z,7.97
2023-02-12T02:30:26.185Z,7.97
2023-02-12T02:31:26.062Z,7.97
2023-02-12T02:32:25.786Z,7.97
2023-02-12T02:33:44.589Z,7.98
2023-02-12T02:34:25.817Z,7.98
2023-02-12T02:35:26.102Z,7.98
2023-02-12T02:36:26.303Z,7.98
2023-02-12T02:37:24.976Z,8.00
2023-02-12T02:38:26.045Z,8.00
2023-02-12T02:39:24.934Z,8.01
2023-02-12T02:40:25.716Z,8.01
2023-02-12T02:41:26.011Z,8.01
2023-02-12T02:42:25.796Z,8.02
2023-02-12T02:43:44.597Z,8.01
2023-02-12T02:44:25.321Z,8.00
2023-02-12T02:45:24.249Z,8.00
2023-02-12T02:46:25.968Z,7.98
2023-02-12T02:47:25.731Z,7.98
2023-02-12T02:48:25.544Z,7.98
2023-02-12T02:49:25.340Z,7.95
2023-02-12T02:50:25.624Z,7.95
2023-02-12T02:51:24.942Z,7.95
2023-02-12T02:52:25.764Z,7.95
2023-02-12T02:53:44.084Z,7.97
2023-02-12T02:54:25.823Z,7.93
2023-02-12T02:55:25.679Z,7.93
2023-02-12T02:56:25.471Z,7.90
2023-02-12T02:57:24.953Z,7.92
2023-02-12T02:58:25.564Z,7.92
2023-02-12T02:59:25.352Z,7.92
2023-02-12T03:00:25.734Z,7.92
2023-02-12T03:01:25.546Z,7.90
2023-02-12T03:02:24.945Z,7.90
2023-02-12T03:03:44.138Z,7.90
2023-02-12T03:04:25.851Z,7.89
2023-02-12T03:05:25.644Z,7.89
2023-02-12T03:06:25.487Z,7.89
2023-02-12T03:07:24.963Z,7.89
2023-02-12T03:08:24.956Z,7.86
2023-02-12T03:09:25.377Z,7.85
2023-02-12T03:10:25.191Z,7.83
2023-02-12T03:11:25.071Z,7.83
2023-02-12T03:12:25.363Z,7.82
2023-02-12T03:13:44.184Z,7.80
2023-02-12T03:14:25.398Z,7.82
2023-02-12T03:15:25.698Z,7.83
2023-02-12T03:16:25.716Z,7.85
2023-02-12T03:17:25.305Z,7.85
2023-02-12T03:18:25.640Z,7.83
2023-02-12T03:19:24.466Z,7.83
2023-02-12T03:20:25.229Z,7.83
2023-02-12T03:21:24.741Z,7.85
2023-02-12T03:22:25.399Z,7.85
2023-02-12T03:23:44.280Z,7.86
2023-02-12T03:24:24.473Z,7.86
2023-02-12T03:25:24.471Z,7.86
2023-02-12T03:26:25.568Z,7.86
2023-02-12T03:27:24.109Z,7.87
2023-02-12T03:28:25.334Z,7.86
2023-02-12T03:29:24.172Z,7.87
2023-02-12T03:30:24.047Z,7.86
2023-02-12T03:31:24.478Z,7.85
2023-02-12T03:32:24.340Z,7.85
2023-02-12T03:33:43.984Z,7.87
2023-02-12T03:34:24.728Z,7.86
2023-02-12T03:35:24.573Z,7.86
2023-02-12T03:36:25.378Z,7.87
2023-02-12T03:37:24.464Z,7.86
2023-02-12T03:38:25.100Z,7.83
2023-02-12T03:39:23.982Z,7.85
2023-02-12T03:40:24.712Z,7.83
2023-02-12T03:41:25.041Z,7.83
2023-02-12T03:42:24.476Z,7.83
2023-02-12T03:43:43.731Z,7.83
2023-02-12T03:44:24.985Z,7.82
2023-02-12T03:45:24.501Z,7.82
2023-02-12T03:46:24.684Z,7.80
2023-02-12T03:47:24.959Z,7.82
2023-02-12T03:48:24.477Z,7.80
2023-02-12T03:49:25.133Z,7.82
2023-02-12T03:50:24.951Z,7.80
2023-02-12T03:51:23.856Z,7.80
2023-02-12T03:52:25.109Z,7.79
2023-02-12T03:53:43.994Z,7.77
2023-02-12T03:54:24.718Z,7.77
2023-02-12T03:55:24.552Z,7.79
2023-02-12T03:56:24.383Z,7.79
2023-02-12T03:57:24.709Z,7.80
2023-02-12T03:58:24.255Z,7.80
2023-02-12T03:59:24.437Z,7.77
2023-02-12T04:00:24.763Z,7.79
2023-02-12T04:01:23.796Z,7.79
2023-02-12T04:02:24.926Z,7.79
2023-02-12T04:03:43.811Z,7.77
2023-02-12T04:04:23.994Z,7.77
2023-02-12T04:05:24.005Z,7.75
2023-02-12T04:06:25.189Z,7.75
2023-02-12T04:07:24.618Z,7.74
2023-02-12T04:08:24.416Z,7.72
2023-02-12T04:09:24.726Z,7.72
2023-02-12T04:10:25.051Z,7.77
2023-02-12T04:11:24.010Z,7.75
2023-02-12T04:12:24.669Z,7.77
2023-02-12T04:13:43.506Z,7.77
2023-02-12T04:14:23.689Z,7.75
2023-02-12T04:15:24.606Z,7.75
2023-02-12T04:16:24.901Z,7.77
2023-02-12T04:17:23.999Z,7.77
2023-02-12T04:18:24.537Z,7.77
2023-02-12T04:19:24.831Z,7.77
2023-02-12T04:20:24.616Z,7.77
2023-02-12T04:21:24.907Z,7.75
2023-02-12T04:22:24.702Z,7.77
2023-02-12T04:23:43.527Z,7.80
2023-02-12T04:24:24.787Z,7.80
2023-02-12T04:25:24.577Z,7.82
2023-02-12T04:26:24.870Z,7.82
2023-02-12T04:27:24.664Z,7.82
2023-02-12T04:28:25.006Z,7.83
2023-02-12T04:29:23.403Z,7.85
2023-02-12T04:30:24.761Z,7.83
2023-02-12T04:31:25.037Z,7.82
2023-02-12T04:32:24.732Z,7.85
2023-02-12T04:33:43.080Z,7.83
2023-02-12T04:34:24.006Z,7.83
2023-02-12T04:35:24.634Z,7.80
2023-02-12T04:36:24.922Z,7.82
2023-02-12T04:37:24.722Z,7.79
2023-02-12T04:38:24.513Z,7.80
2023-02-12T04:39:24.805Z,7.80
2023-02-12T04:40:24.011Z,7.79
2023-02-12T04:41:24.445Z,7.79
2023-02-12T04:42:24.722Z,7.77
2023-02-12T04:43:43.057Z,7.77
2023-02-12T04:44:24.773Z,7.75
2023-02-12T04:45:23.258Z,7.75
2023-02-12T04:46:23.027Z,7.75
2023-02-12T04:47:24.721Z,7.74
2023-02-12T04:48:24.537Z,7.74
2023-02-12T04:49:24.337Z,7.71
2023-02-12T04:50:24.619Z,7.74
2023-02-12T04:51:23.520Z,7.72
2023-02-12T04:52:24.720Z,7.72
2023-02-12T04:53:43.041Z,7.74
2023-02-12T04:54:24.279Z,7.72
2023-02-12T04:55:23.783Z,7.74
2023-02-12T04:56:24.428Z,7.75
2023-02-12T04:57:23.533Z,7.75
2023-02-12T04:58:24.539Z,7.74
2023-02-12T04:59:24.389Z,7.74
2023-02-12T05:00:24.641Z,7.75
2023-02-12T05:01:24.632Z,7.74
2023-02-12T05:02:23.522Z,7.74
2023-02-12T05:03:43.131Z,7.75
2023-02-12T05:04:24.341Z,7.77
2023-02-12T05:05:24.220Z,7.75
2023-02-12T05:06:24.429Z,7.74
2023-02-12T05:07:24.248Z,7.74
2023-02-12T05:08:23.734Z,7.74
2023-02-12T05:09:23.532Z,7.77
2023-02-12T05:10:24.096Z,7.74
2023-02-12T05:11:24.444Z,7.74
2023-02-12T05:12:24.257Z,7.75
2023-02-12T05:13:43.073Z,7.74
2023-02-12T05:14:24.293Z,7.74
2023-02-12T05:15:24.080Z,7.74
2023-02-12T05:16:24.350Z,7.74
2023-02-12T05:17:22.832Z,7.74
2023-02-12T05:18:24.044Z,7.75
2023-02-12T05:19:24.388Z,7.74
2023-02-12T05:20:23.542Z,7.74
2023-02-12T05:21:23.542Z,7.74
2023-02-12T05:22:24.277Z,7.71
2023-02-12T05:23:42.606Z,7.72
2023-02-12T05:24:24.307Z,7.72
2023-02-12T05:25:24.116Z,7.72
2023-02-12T05:26:23.545Z,7.72
2023-02-12T05:27:24.248Z,7.69
2023-02-12T05:28:24.049Z,7.71
2023-02-12T05:29:24.329Z,7.69
2023-02-12T05:30:24.117Z,7.71
2023-02-12T05:31:23.534Z,7.72
2023-02-12T05:32:22.865Z,7.71
2023-02-12T05:33:42.641Z,7.71
2023-02-12T05:34:23.871Z,7.71
2023-02-12T05:35:24.187Z,7.71
2023-02-12T05:36:23.956Z,7.71
2023-02-12T05:37:23.047Z,7.69
2023-02-12T05:38:23.037Z,7.72
2023-02-12T05:39:23.827Z,7.69
2023-02-12T05:40:24.127Z,7.69
2023-02-12T05:41:23.449Z,7.69
2023-02-12T05:42:24.288Z,7.71
2023-02-12T05:43:42.626Z,7.69
2023-02-12T05:44:23.843Z,7.68
2023-02-12T05:45:23.364Z,7.64
2023-02-12T05:46:23.957Z,7.64
2023-02-12T05:47:23.718Z,7.63
2023-02-12T05:48:24.110Z,7.63
2023-02-12T05:49:23.043Z,7.63
2023-02-12T05:50:23.758Z,7.63
2023-02-12T05:51:23.558Z,7.63
2023-02-12T05:52:23.838Z,7.61
2023-02-12T05:53:42.694Z,7.63
2023-02-12T05:54:23.884Z,7.63
2023-02-12T05:55:23.693Z,7.63
2023-02-12T05:56:23.980Z,7.63
2023-02-12T05:57:23.011Z,7.63
2023-02-12T05:58:24.120Z,7.61
2023-02-12T05:59:23.892Z,7.64
2023-02-12T06:00:23.208Z,7.63
2023-02-12T06:01:23.058Z,7.63
2023-02-12T06:02:23.838Z,7.64
2023-02-12T06:03:42.141Z,7.64
2023-02-12T06:04:24.077Z,7.63
2023-02-12T06:05:23.679Z,7.63
2023-02-12T06:06:23.988Z,7.61
2023-02-12T06:07:23.062Z,7.61
2023-02-12T06:08:23.568Z,7.63
2023-02-12T06:09:23.078Z,7.61
2023-02-12T06:10:23.645Z,7.61
2023-02-12T06:11:23.433Z,7.61
2023-02-12T06:12:23.056Z,7.60
2023-02-12T06:13:42.044Z,7.60
2023-02-12T06:14:22.404Z,7.60
2023-02-12T06:15:23.617Z,7.60
2023-02-12T06:16:23.593Z,7.60
2023-02-12T06:17:23.706Z,7.60
2023-02-12T06:18:22.258Z,7.58
2023-02-12T06:19:22.908Z,7.58
2023-02-12T06:20:23.678Z,7.57
2023-02-12T06:21:22.705Z,7.57
2023-02-12T06:22:23.829Z,7.57
2023-02-12T06:23:42.195Z,7.55
2023-02-12T06:24:23.405Z,7.55
2023-02-12T06:25:23.721Z,7.53
2023-02-12T06:26:23.501Z,7.52
2023-02-12T06:27:23.779Z,7.52
2023-02-12T06:28:23.594Z,7.52
2023-02-12T06:29:22.559Z,7.52
2023-02-12T06:30:23.757Z,7.52
2023-02-12T06:31:23.696Z,7.52
2023-02-12T06:32:23.331Z,7.52
2023-02-12T06:33:42.274Z,7.52
2023-02-12T06:34:23.510Z,7.52
2023-02-12T06:35:22.577Z,7.52
2023-02-12T06:36:23.661Z,7.53
2023-02-12T06:37:23.446Z,7.50
2023-02-12T06:38:23.236Z,7.50
2023-02-12T06:39:23.587Z,7.49
2023-02-12T06:40:22.573Z,7.49
2023-02-12T06:41:23.172Z,7.49
2023-02-12T06:42:23.448Z,7.49
2023-02-12T06:43:41.799Z,7.50
2023-02-12T06:44:23.487Z,7.49
2023-02-12T06:45:23.338Z,7.50
2023-02-12T06:46:22.635Z,7.49
2023-02-12T06:47:23.430Z,7.49
2023-02-12T06:48:21.959Z,7.49
2023-02-12T06:49:23.195Z,7.49
2023-02-12T06:50:23.485Z,7.50
2023-02-12T06:51:22.578Z,7.49
2023-02-12T06:52:23.123Z,7.49
2023-02-12T06:53:41.968Z,7.49
2023-02-12T06:54:22.721Z,7.50
2023-02-12T06:55:22.509Z,7.49
2023-02-12T06:56:23.302Z,7.49
2023-02-12T06:57:23.103Z,7.48
2023-02-12T06:58:23.281Z,7.49
2023-02-12T06:59:23.174Z,7.50
2023-02-12T07:00:22.974Z,7.49
2023-02-12T07:01:23.304Z,7.48
2023-02-12T07:02:23.095Z,7.49
2023-02-12T07:03:41.977Z,7.49
2023-02-12T07:04:22.653Z,7.48
2023-02-12T07:05:23.008Z,7.48
2023-02-12T07:06:23.321Z,7.48
2023-02-12T07:07:23.103Z,7.46
2023-02-12T07:08:22.872Z,7.46
2023-02-12T07:09:22.097Z,7.49
2023-02-12T07:10:21.623Z,7.48
2023-02-12T07:11:23.295Z,7.49
2023-02-12T07:12:22.591Z,7.48
2023-02-12T07:13:41.437Z,7.49
2023-02-12T07:14:23.140Z,7.49
2023-02-12T07:15:22.094Z,7.49
2023-02-12T07:16:23.362Z,7.48
2023-02-12T07:17:23.076Z,7.50
2023-02-12T07:18:22.858Z,7.52
2023-02-12T07:19:23.237Z,7.49
2023-02-12T07:20:21.595Z,7.49
2023-02-12T07:21:22.077Z,7.49
2023-02-12T07:22:23.161Z,7.49
2023-02-12T07:23:41.512Z,7.50
2023-02-12T07:24:22.252Z,7.49
2023-02-12T07:25:22.560Z,7.49
2023-02-12T07:26:22.354Z,7.50
2023-02-12T07:27:22.109Z,7.52
2023-02-12T07:28:22.935Z,7.52
2023-02-12T07:29:22.215Z,7.53
2023-02-12T07:30:21.589Z,7.55
2023-02-12T07:31:22.962Z,7.57
2023-02-12T07:32:22.098Z,7.57
2023-02-12T07:33:41.437Z,7.58
2023-02-12T07:34:22.642Z,7.58
2023-02-12T07:35:23.058Z,7.58
2023-02-12T07:36:22.792Z,7.57
2023-02-12T07:37:21.802Z,7.58
2023-02-12T07:38:22.899Z,7.57
2023-02-12T07:39:22.690Z,7.57
2023-02-12T07:40:23.024Z,7.58
2023-02-12T07:41:22.820Z,7.60
2023-02-12T07:42:22.579Z,7.61
2023-02-12T07:43:41.445Z,7.63
2023-02-12T07:44:22.155Z,7.61
2023-02-12T07:45:22.164Z,7.60
2023-02-12T07:46:22.690Z,7.61
2023-02-12T07:47:21.038Z,7.63
2023-02-12T07:48:21.326Z,7.67
2023-02-12T07:49:21.084Z,7.64
2023-02-12T07:50:21.927Z,7.67
2023-02-12T07:51:21.275Z,7.68
2023-02-12T07:52:21.010Z,7.68
2023-02-12T07:53:41.278Z,7.69
2023-02-12T07:54:21.000Z,7.68
2023-02-12T07:55:21.278Z,7.71
2023-02-12T07:56:21.019Z,7.71
2023-02-12T07:57:21.264Z,7.74
2023-02-12T07:58:21.026Z,7.72
2023-02-12T07:59:21.256Z,7.75
2023-02-12T08:00:21.020Z,7.77
2023-02-12T08:01:21.294Z,7.77
2023-02-12T08:02:21.107Z,7.77
2023-02-12T08:03:41.306Z,7.80
2023-02-12T08:04:21.143Z,7.82
2023-02-12T08:05:21.285Z,7.82
2023-02-12T08:06:21.062Z,7.79
2023-02-12T08:07:21.294Z,7.79
2023-02-12T08:08:21.050Z,7.79
2023-02-12T08:09:20.815Z,7.79
2023-02-12T08:10:21.068Z,7.77
2023-02-12T08:11:21.302Z,7.79
2023-02-12T08:12:21.057Z,7.79
2023-02-12T08:13:40.829Z,7.82
2023-02-12T08:14:21.072Z,7.82
2023-02-12T08:15:20.811Z,7.85
2023-02-12T08:16:21.126Z,7.83
2023-02-12T08:17:20.806Z,7.85
2023-02-12T08:18:21.077Z,7.86
2023-02-12T08:19:24.866Z,7.89
2023-02-12T08:20:21.099Z,7.89
2023-02-12T08:21:20.834Z,7.90
2023-02-12T08:22:21.068Z,7.93
2023-02-12T08:23:40.826Z,7.97
2023-02-12T08:24:21.066Z,7.97
2023-02-12T08:25:20.823Z,7.98
2023-02-12T08:26:21.072Z,8.01
2023-02-12T08:27:20.825Z,8.02
2023-02-12T08:28:21.118Z,8.01
2023-02-12T08:29:20.843Z,8.02
2023-02-12T08:30:20.604Z,8.04
2023-02-12T08:31:20.983Z,8.04
2023-02-12T08:32:21.124Z,8.02
2023-02-12T08:33:42.316Z,8.04
2023-02-12T08:34:20.619Z,8.05
2023-02-12T08:35:20.879Z,8.05
2023-02-12T08:36:20.632Z,8.07
2023-02-12T08:37:22.339Z,8.08
2023-02-12T08:38:22.095Z,8.08
2023-02-12T08:39:20.920Z,8.10
2023-02-12T08:40:20.656Z,8.11
2023-02-12T08:41:21.804Z,8.15
2023-02-12T08:42:20.677Z,8.16
2023-02-12T08:43:40.930Z,8.20
2023-02-12T08:44:22.119Z,8.22
2023-02-12T08:45:20.935Z,8.22
2023-02-12T08:46:20.720Z,8.23
2023-02-12T08:47:20.445Z,8.25
2023-02-12T08:48:20.723Z,8.28
2023-02-12T08:49:20.464Z,8.29
2023-02-12T08:50:22.164Z,8.33
2023-02-12T08:51:21.816Z,8.36
2023-02-12T08:52:20.818Z,8.36
2023-02-12T08:53:40.565Z,8.38
2023-02-12T08:54:20.829Z,8.38
2023-02-12T08:55:20.565Z,8.41
2023-02-12T08:56:20.324Z,8.41
2023-02-12T08:57:20.561Z,8.43
2023-02-12T08:58:20.320Z,8.44
2023-02-12T08:59:20.559Z,8.45
2023-02-12T09:00:20.318Z,8.47
2023-02-12T09:01:21.534Z,8.48
2023-02-12T09:02:20.365Z,8.48
2023-02-12T09:03:41.158Z,8.52
2023-02-12T09:04:21.877Z,8.55
2023-02-12T09:05:20.648Z,8.55
2023-02-12T09:06:20.431Z,8.56
2023-02-12T09:07:20.177Z,8.56
2023-02-12T09:08:20.429Z,8.56
2023-02-12T09:09:20.661Z,8.58
2023-02-12T09:10:20.453Z,8.58
2023-02-12T09:11:20.198Z,8.59
2023-02-12T09:12:20.484Z,8.62
2023-02-12T09:13:40.250Z,8.62
2023-02-12T09:14:20.515Z,8.63
2023-02-12T09:15:20.257Z,8.63
2023-02-12T09:16:20.589Z,8.65
2023-02-12T09:17:20.276Z,8.66
2023-02-12T09:18:20.527Z,8.68
2023-02-12T09:19:20.286Z,8.70
2023-02-12T09:20:20.539Z,8.70
2023-02-12T09:21:21.217Z,8.71
2023-02-12T09:22:20.035Z,8.74
2023-02-12T09:23:40.319Z,8.76
2023-02-12T09:24:20.078Z,8.76
2023-02-12T09:25:20.306Z,8.77
2023-02-12T09:26:20.088Z,8.79
2023-02-12T09:27:20.347Z,8.79
2023-02-12T09:28:20.219Z,8.77
2023-02-12T09:29:20.380Z,8.79
2023-02-12T09:30:20.163Z,8.80
2023-02-12T09:31:20.481Z,8.79
2023-02-12T09:32:20.191Z,8.80
2023-02-12T09:33:40.426Z,8.80
2023-02-12T09:34:20.192Z,8.81
2023-02-12T09:35:19.938Z,8.84
2023-02-12T09:36:20.190Z,8.84
2023-02-12T09:37:19.941Z,8.86
2023-02-12T09:38:20.207Z,8.89
2023-02-12T09:39:19.962Z,8.91
2023-02-12T09:40:20.243Z,8.92
2023-02-12T09:41:19.957Z,8.94
2023-02-12T09:42:20.255Z,8.96
2023-02-12T09:43:39.996Z,8.99
2023-02-12T09:44:21.188Z,8.99
2023-02-12T09:45:19.997Z,8.99
2023-02-12T09:46:21.244Z,9.01
2023-02-12T09:47:19.995Z,9.02
2023-02-12T09:48:20.260Z,9.02
2023-02-12T09:49:20.009Z,9.04
2023-02-12T09:50:20.281Z,9.05
2023-02-12T09:51:20.994Z,9.08
2023-02-12T09:52:19.772Z,9.10
2023-02-12T09:53:40.047Z,9.13
2023-02-12T09:54:19.792Z,9.13
2023-02-12T09:55:20.995Z,9.13
2023-02-12T09:56:19.819Z,9.14
2023-02-12T09:57:20.073Z,9.14
2023-02-12T09:58:19.819Z,9.13
2023-02-12T09:59:21.042Z,9.13
2023-02-12T10:00:19.130Z,9.13
2023-02-12T10:01:19.909Z,9.15
2023-02-12T10:02:19.680Z,9.15
2023-02-12T10:03:39.970Z,9.20
2023-02-12T10:04:19.715Z,9.20
2023-02-12T10:05:19.924Z,9.23
2023-02-12T10:06:20.505Z,9.26
2023-02-12T10:07:19.941Z,9.28
2023-02-12T10:08:23.929Z,9.28
2023-02-12T10:09:20.929Z,9.31
2023-02-12T10:10:19.662Z,9.31
2023-02-12T10:11:19.937Z,9.35
2023-02-12T10:12:19.678Z,9.33
2023-02-12T10:13:41.316Z,9.36
2023-02-12T10:14:19.752Z,9.36
2023-02-12T10:15:19.512Z,9.39
2023-02-12T10:16:19.817Z,9.40
2023-02-12T10:17:19.515Z,9.42
2023-02-12T10:18:19.777Z,9.40
2023-02-12T10:19:20.188Z,9.40
2023-02-12T10:20:19.793Z,9.40
2023-02-12T10:21:19.563Z,9.43
2023-02-12T10:22:19.799Z,9.46
2023-02-12T10:23:39.572Z,9.43
2023-02-12T10:24:19.786Z,9.47
2023-02-12T10:25:19.531Z,9.50
2023-02-12T10:26:19.806Z,9.50
2023-02-12T10:27:19.540Z,9.56
2023-02-12T10:28:19.863Z,9.57
2023-02-12T10:29:19.560Z,9.58
2023-02-12T10:30:19.797Z,9.58
2023-02-12T10:31:20.550Z,9.61
2023-02-12T10:32:19.798Z,9.60
2023-02-12T10:33:41.017Z,9.61
2023-02-12T10:34:19.341Z,9.61
2023-02-12T10:35:19.571Z,9.60
2023-02-12T10:36:19.326Z,9.61
2023-02-12T10:37:19.602Z,9.65
2023-02-12T10:38:19.345Z,9.64
2023-02-12T10:39:19.573Z,9.64
2023-02-12T10:40:19.344Z,9.68
2023-02-12T10:41:20.533Z,9.69
2023-02-12T10:42:19.365Z,9.71
2023-02-12T10:43:39.697Z,9.72
2023-02-12T10:44:19.366Z,9.71
2023-02-12T10:45:19.592Z,9.71
2023-02-12T10:46:19.445Z,9.71
2023-02-12T10:47:19.633Z,9.71
2023-02-12T10:48:20.789Z,9.72
2023-02-12T10:49:19.665Z,9.72
2023-02-12T10:50:19.415Z,9.74
2023-02-12T10:51:19.150Z,9.74
2023-02-12T10:52:19.436Z,9.71
2023-02-12T10:53:39.190Z,9.71
2023-02-12T10:54:19.451Z,9.72
2023-02-12T10:55:19.197Z,9.75
2023-02-12T10:56:19.462Z,9.74
2023-02-12T10:57:19.202Z,9.75
2023-02-12T10:58:19.471Z,9.76
2023-02-12T10:59:19.213Z,9.76
2023-02-12T11:00:19.480Z,9.78
2023-02-12T11:01:19.266Z,9.79
2023-02-12T11:02:19.491Z,9.78
2023-02-12T11:03:39.256Z,9.79
2023-02-12T11:04:19.001Z,9.81
2023-02-12T11:05:19.269Z,9.83
2023-02-12T11:06:20.500Z,9.81
2023-02-12T11:07:19.271Z,9.79
2023-02-12T11:08:19.060Z,9.79
2023-02-12T11:09:19.309Z,9.79
2023-02-12T11:10:19.084Z,9.81
2023-02-12T11:11:19.360Z,9.81
2023-02-12T11:12:19.121Z,9.83
2023-02-12T11:13:39.419Z,9.83
2023-02-12T11:14:19.155Z,9.86
2023-02-12T11:15:18.922Z,9.87
2023-02-12T11:16:19.242Z,9.87
2023-02-12T11:17:18.951Z,9.89
2023-02-12T11:18:19.224Z,9.91
2023-02-12T11:19:18.971Z,9.93
2023-02-12T11:20:19.200Z,9.93
2023-02-12T11:21:18.960Z,9.93
2023-02-12T11:22:19.215Z,9.94
2023-02-12T11:23:39.001Z,9.94
2023-02-12T11:24:19.247Z,9.96
2023-02-12T11:25:18.994Z,9.96
2023-02-12T11:26:18.792Z,9.97
2023-02-12T11:27:19.008Z,9.94
2023-02-12T11:28:18.870Z,9.96
2023-02-12T11:29:19.070Z,9.96
2023-02-12T11:30:18.800Z,9.99
2023-02-12T11:31:19.093Z,10.02
2023-02-12T11:32:18.798Z,10.01
2023-02-12T11:33:39.094Z,10.02
2023-02-12T11:34:18.837Z,10.04
2023-02-12T11:35:19.053Z,10.07
2023-02-12T11:36:18.825Z,10.07
2023-02-12T11:37:19.097Z,10.09
2023-02-12T11:38:18.817Z,10.11
2023-02-12T11:39:19.071Z,10.14
2023-02-12T11:40:18.824Z,10.17
2023-02-12T11:41:19.073Z,10.17
2023-02-12T11:42:18.877Z,10.18
2023-02-12T11:43:38.658Z,10.18
2023-02-12T11:44:18.909Z,10.20
2023-02-12T11:45:18.680Z,10.20
2023-02-12T11:46:18.953Z,10.22
2023-02-12T11:47:18.699Z,10.23
2023-02-12T11:48:18.942Z,10.23
2023-02-12T11:49:18.706Z,10.26
2023-02-12T11:50:18.981Z,10.27
2023-02-12T11:51:18.714Z,10.27
2023-02-12T11:52:18.960Z,10.29
2023-02-12T11:53:38.734Z,10.27
2023-02-12T11:54:18.481Z,10.26
2023-02-12T11:55:18.758Z,10.27
2023-02-12T11:56:18.495Z,10.29
2023-02-12T11:57:18.790Z,10.30
2023-02-12T11:58:18.517Z,10.29
2023-02-12T11:59:18.790Z,10.30
2023-02-12T12:00:18.574Z,10.33
2023-02-12T12:01:19.626Z,10.30
2023-02-12T12:02:18.554Z,10.29
2023-02-12T12:03:40.363Z,10.32
2023-02-12T12:04:18.652Z,10.33
2023-02-12T12:05:18.426Z,10.32
2023-02-12T12:06:18.704Z,10.30
2023-02-12T12:07:18.459Z,10.30
2023-02-12T12:08:18.696Z,10.29
2023-02-12T12:09:18.455Z,10.30
2023-02-12T12:10:18.804Z,10.32
2023-02-12T12:11:18.628Z,10.32
2023-02-12T12:12:18.754Z,10.33
2023-02-12T12:13:38.536Z,10.34
2023-02-12T12:14:19.732Z,10.34
2023-02-12T12:15:18.588Z,10.36
2023-02-12T12:16:18.353Z,10.38
2023-02-12T12:17:18.632Z,10.36
2023-02-12T12:18:18.342Z,10.33
2023-02-12T12:19:18.641Z,10.33
2023-02-12T12:20:18.432Z,10.33
2023-02-12T12:21:18.629Z,10.34
2023-02-12T12:22:18.376Z,10.33
2023-02-12T12:23:38.680Z,10.36
2023-02-12T12:24:18.408Z,10.34
2023-02-12T12:25:18.186Z,10.38
2023-02-12T12:26:18.432Z,10.38
2023-02-12T12:27:18.212Z,10.38
2023-02-12T12:28:18.521Z,10.38
2023-02-12T12:29:18.218Z,10.38
2023-02-12T12:30:18.472Z,10.34
2023-02-12T12:31:18.270Z,10.38
2023-02-12T12:32:18.500Z,10.38
2023-02-12T12:33:38.282Z,10.40
2023-02-12T12:34:18.504Z,10.42
2023-02-12T12:35:18.289Z,10.42
2023-02-12T12:36:18.034Z,10.44
2023-02-12T12:37:18.295Z,10.44
2023-02-12T12:38:18.062Z,10.44
2023-02-12T12:39:18.354Z,10.45
2023-02-12T12:40:18.071Z,10.47
2023-02-12T12:41:18.336Z,10.48
2023-02-12T12:42:18.088Z,10.48
2023-02-12T12:43:38.398Z,10.51
2023-02-12T12:44:18.118Z,10.51
2023-02-12T12:45:18.413Z,10.51
2023-02-12T12:46:18.155Z,10.51
2023-02-12T12:47:18.422Z,10.52
2023-02-12T12:48:18.198Z,10.52
2023-02-12T12:49:17.950Z,10.53
2023-02-12T12:50:18.194Z,10.53
2023-02-12T12:51:17.954Z,10.53
2023-02-12T12:52:18.203Z,10.56
2023-02-12T12:53:37.975Z,10.53
2023-02-12T12:54:18.222Z,10.55
2023-02-12T12:55:17.985Z,10.55
2023-02-12T12:56:18.257Z,10.55
2023-02-12T12:57:18.028Z,10.55
2023-02-12T12:58:18.295Z,10.55
2023-02-12T12:59:18.045Z,10.51
2023-02-12T13:00:19.825Z,10.52
2023-02-12T13:01:18.195Z,10.51
2023-02-12T13:02:17.877Z,10.48
2023-02-12T13:03:39.660Z,10.48
2023-02-12T13:04:17.936Z,10.47
2023-02-12T13:05:18.224Z,10.47
2023-02-12T13:06:18.005Z,10.45
2023-02-12T13:07:17.755Z,10.44
2023-02-12T13:08:17.997Z,10.44
2023-02-12T13:09:17.760Z,10.44
2023-02-12T13:10:18.039Z,10.45
2023-02-12T13:11:17.782Z,10.47
2023-02-12T13:12:17.994Z,10.45
2023-02-12T13:13:38.778Z,10.48
2023-02-12T13:14:18.089Z,10.48